Flight Track Log - Related Links

Times and Time Zones

All times are in EDT time to prevent confusion due to time zone crossing. See the JUS327 flight status page for this flight to view local times or setup timezone preferences in your user account.

Time Position Orientation Groundspeed Altitude Reporting Facility
EDT Latitude Longitude Course Direction KTS MPH feet Rate Location/Type
Thu 07:01:48 PM 32.8833 -96.9167 320° Northwest 197 227 3,100  Level Dallas / Fort Worth TRACON
Thu 07:02:42 PM 32.9167 -96.9500 320° Northwest 201 231 5,300 2,263 Climbing Dallas / Fort Worth TRACON
Thu 07:03:42 PM 32.9500 -97.0000 308° West 206 237 7,400 2,250 Climbing Dallas / Fort Worth TRACON
Thu 07:04:42 PM 33.0000 -97.0667 312° West 209 241 9,800 1,672 Climbing Dallas / Fort Worth TRACON
Thu 07:07:03 PM 33.0817 -97.1853 309° West 199 229 13,000 1,313 Climbing Fort Worth Center
Thu 07:08:03 PM 33.0544 -97.2400 239° Southwest 183 211 14,200 1,000 Climbing Fort Worth Center
Thu 07:09:27 PM 33.0192 -97.3242 243° Southwest 228 262 15,400 1,125 Climbing Fort Worth Center
Thu 07:10:27 PM 32.9733 -97.4283 242° Southwest 270 311 16,900 1,700 Climbing Fort Worth Center
Thu 07:11:27 PM 32.9439 -97.5050 245° Southwest 276 318 18,800 1,650 Climbing Fort Worth Center
Thu 07:12:27 PM 32.9106 -97.5942 246° West 276 318 20,200 1,450 Climbing Fort Worth Center
Thu 07:13:27 PM 32.8728 -97.6706 240° Southwest 276 318 21,700 1,300 Climbing Fort Worth Center
Thu 07:14:27 PM 32.8350 -97.7472 240° Southwest 274 315 22,800 1,000 Climbing Fort Worth Center
Thu 07:15:27 PM 32.8056 -97.8236 245° Southwest 274 315 23,700 900 Climbing Fort Worth Center
Thu 07:16:27 PM 32.7761 -97.8928 243° Southwest 286 329 24,600 1,100 Climbing Fort Worth Center
Thu 07:17:27 PM 32.7358 -97.9964 245° Southwest 286 329 25,900 1,150 Climbing Fort Worth Center
Thu 07:18:27 PM 32.7356 -98.0975 270° West 294 338 26,900 1,050 Climbing Fort Worth Center
Thu 07:19:27 PM 32.7494 -98.1989 279° West 312 359 28,000 1,000 Climbing Fort Worth Center
Thu 07:20:27 PM 32.7425 -98.3025 265° West 302 348 28,900 850 Climbing Fort Worth Center
Thu 07:21:27 PM 32.7292 -98.3964 260° West 302 348 29,700 800 Climbing Fort Worth Center
Thu 07:22:27 PM 32.7203 -98.4778 263° West 290 334 30,500 750 Climbing Fort Worth Center
Thu 07:23:27 PM 32.6986 -98.5639 253° West 277 319 31,200 750 Climbing Fort Worth Center
Thu 07:24:27 PM 32.6728 -98.6450 249° West 277 319 32,000 350 Climbing Fort Worth Center
Thu 07:25:27 PM 32.6656 -98.7361 265° West 277 319 31,900  Descending Fort Worth Center
Thu 07:26:27 PM 32.6542 -98.8272 262° West 277 319 32,000  Climbing Fort Worth Center
Thu 07:27:27 PM 32.6383 -98.9208 259° West 282 325 31,900 -50 Descending Fort Worth Center
Thu 07:28:27 PM 32.6206 -99.0192 258° West 295 339 31,900 50 Level Fort Worth Center
Thu 07:29:27 PM 32.6047 -99.1175 259° West 303 349 32,000  Climbing Fort Worth Center
Thu 07:30:27 PM 32.5886 -99.2233 260° West 317 365 31,900 -50 Descending Fort Worth Center
Thu 07:31:27 PM 32.5744 -99.3289 261° West 322 371 31,900  Level Fort Worth Center
Thu 07:32:27 PM 32.5561 -99.4294 258° West 322 371 31,900  Level Fort Worth Center
Thu 07:33:27 PM 32.5378 -99.5303 258° West 322 371 31,900  Level Fort Worth Center
Thu 07:34:27 PM 32.5194 -99.6308 258° West 317 365 31,900  Level Fort Worth Center
Thu 07:35:27 PM 32.5031 -99.7314 259° West 317 365 31,900 50 Level Fort Worth Center
Thu 07:36:27 PM 32.4842 -99.8344 258° West 317 365 32,000  Climbing Fort Worth Center
Thu 07:37:27 PM 32.4694 -99.9497 261° West 317 365 31,900  Descending Fort Worth Center
Thu 07:38:27 PM 32.4692 -100.0606 270° West 322 371 32,000  Climbing Fort Worth Center
Thu 07:39:27 PM 32.4669 -100.1711 269° West 332 382 31,900 -50 Descending Fort Worth Center
Thu 07:40:27 PM 32.4561 -100.2792 263° West 332 382 31,900  Level Fort Worth Center
Thu 07:41:27 PM 32.4494 -100.3897 266° West 332 382 31,900  Level Fort Worth Center
Thu 07:42:27 PM 32.4467 -100.5028 268° West 332 382 31,900  Level Fort Worth Center
Thu 07:43:27 PM 32.4375 -100.6158 265° West 338 389 31,900  Level Fort Worth Center
Thu 07:44:27 PM 32.4306 -100.7239 266° West 338 389 31,900  Level Fort Worth Center
Thu 07:45:27 PM 32.4233 -100.8342 266° West 343 395 31,900  Level Fort Worth Center
Thu 07:46:27 PM 32.4183 -100.9447 267° West 343 395 31,900  Level Fort Worth Center
Thu 07:47:27 PM 32.4108 -101.0553 265° West 348 400 31,900  Level Fort Worth Center
Thu 07:48:27 PM 32.4036 -101.1633 266° West 348 400 31,900  Level Fort Worth Center
Thu 07:49:27 PM 32.3981 -101.2736 267° West 348 400 31,900  Level Fort Worth Center
Thu 07:50:27 PM 32.3906 -101.3817 265° West 342 394 31,900  Level Fort Worth Center
Thu 07:51:27 PM 32.3828 -101.4919 265° West 342 394 31,900  Level Fort Worth Center
Thu 07:52:27 PM 32.3731 -101.5972 264° West 337 388 31,900  Level Fort Worth Center
Thu 07:53:27 PM 32.3653 -101.7050 265° West 337 388 31,900  Level Fort Worth Center
Thu 07:54:27 PM 32.3594 -101.8131 266° West 332 382 31,900  Level Fort Worth Center
Thu 07:55:27 PM 32.3517 -101.9208 265° West 332 382 31,900  Level Fort Worth Center
Thu 07:56:27 PM 32.3436 -102.0261 265° West 327 376 31,900  Level Fort Worth Center
Thu 07:57:27 PM 32.3353 -102.1364 265° West 327 376 31,900  Level Fort Worth Center
Thu 07:58:27 PM 32.3297 -102.2244 266° West 327 376 31,900  Level Fort Worth Center
Thu 07:59:27 PM 32.3186 -102.3517 264° West 332 382 31,900 50 Level Fort Worth Center
Thu 08:00:27 PM 32.3122 -102.4619 266° West 332 382 32,000  Climbing Fort Worth Center
Thu 08:01:27 PM 32.3014 -102.5719 263° West 332 382 31,900 -50 Descending Fort Worth Center
Thu 08:02:27 PM 32.2950 -102.6797 266° West 327 376 31,900  Level Fort Worth Center
Thu 08:03:27 PM 32.2861 -102.7872 264° West 327 376 31,900  Level Fort Worth Center
Thu 08:04:27 PM 32.2772 -102.8972 265° West 334 384 31,900  Level Fort Worth Center
Thu 08:04:58 PM 32.2722 -102.9389 262° West 333 383 31,900  Level Albuquerque Center
Thu 08:05:59 PM 32.2628 -103.0456 264° West 329 379 31,900  Level Albuquerque Center
Thu 08:07:01 PM 32.2550 -103.1553 265° West 332 382 31,900  Level Albuquerque Center
Thu 08:08:03 PM 32.2458 -103.2625 264° West 331 381 31,900  Level Albuquerque Center
Thu 08:09:04 PM 32.2358 -103.3694 264° West 330 380 31,900  Level Albuquerque Center
Thu 08:10:06 PM 32.2219 -103.4969 263° West 327 376 31,900  Level Albuquerque Center
Thu 08:11:08 PM 32.2133 -103.6061 265° West 333 383 31,900  Level Albuquerque Center
Thu 08:12:10 PM 32.2044 -103.7142 264° West 333 383 31,900  Level Albuquerque Center
Thu 08:13:11 PM 32.1950 -103.8242 264° West 338 389 31,900  Level Albuquerque Center
Thu 08:14:13 PM 32.1861 -103.9328 265° West 335 386 31,900  Level Albuquerque Center
Thu 08:15:15 PM 32.1769 -104.0431 264° West 337 388 31,900  Level Albuquerque Center
Thu 08:16:17 PM 32.1656 -104.1564 263° West 338 389 31,900  Level Albuquerque Center
Thu 08:17:19 PM 32.1528 -104.2886 264° West 339 390 31,900  Level Albuquerque Center
Thu 08:18:21 PM 32.1442 -104.4000 265° West 341 392 31,900  Level Albuquerque Center
Thu 08:19:22 PM 32.1511 -104.5081 274° West 335 386 31,900  Level Albuquerque Center
Thu 08:20:24 PM 32.1589 -104.6175 275° West 335 386 31,900  Level Albuquerque Center
Thu 08:21:26 PM 32.1594 -104.7253 270° West 332 382 31,900  Level Albuquerque Center
Thu 08:22:28 PM 32.1642 -104.8361 273° West 335 386 31,900  Level Albuquerque Center
Thu 08:23:30 PM 32.1700 -104.9461 274° West 338 389 31,900  Level Albuquerque Center
Thu 08:24:31 PM 32.1753 -105.0781 273° West 339 390 31,900  Level Albuquerque Center
Thu 08:25:33 PM 32.1792 -105.1872 272° West 336 387 31,900  Level Albuquerque Center
Thu 08:26:35 PM 32.1822 -105.2978 272° West 338 389 31,900  Level Albuquerque Center
Thu 08:27:37 PM 32.1869 -105.4131 273° West 349 402 31,900  Level Albuquerque Center
Thu 08:28:38 PM 32.1889 -105.5233 271° West 340 391 31,900  Level Albuquerque Center
Thu 08:29:40 PM 32.1950 -105.6358 274° West 344 396 31,900  Level Albuquerque Center
Thu 08:30:42 PM 32.2003 -105.7711 273° West 345 397 31,900  Level Albuquerque Center
Thu 08:31:44 PM 32.2025 -105.8856 271° West 349 402 31,900  Level Albuquerque Center
Thu 08:32:45 PM 32.2089 -106.0014 274° West 354 407 31,900  Level Albuquerque Center
Thu 08:33:47 PM 32.2086 -106.1147 270° West 349 402 31,900  Level Albuquerque Center
Thu 08:34:49 PM 32.2125 -106.2300 272° West 350 403 31,900  Level Albuquerque Center
Thu 08:35:51 PM 32.2194 -106.3450 274° West 353 406 31,900  Level Albuquerque Center
Thu 08:36:53 PM 32.2219 -106.4825 271° West 350 403 31,900  Level Albuquerque Center
Thu 08:37:54 PM 32.2236 -106.5972 271° West 350 403 31,900  Level Albuquerque Center
Thu 08:38:57 PM 32.2297 -106.7125 274° West 353 406 31,900  Level Albuquerque Center
Thu 08:39:58 PM 32.2328 -106.8272 272° West 350 403 31,900  Level Albuquerque Center
Thu 08:41:00 PM 32.2350 -106.9544 271° West 350 403 31,900 48 Level Albuquerque Center
Thu 08:42:02 PM 32.2389 -107.0700 272° West 352 405 32,000  Climbing Albuquerque Center
Thu 08:43:03 PM 32.2411 -107.1939 271° West 355 409 31,900 -49 Descending Albuquerque Center
Thu 08:44:05 PM 32.2406 -107.3139 270° West 364 419 31,900  Level Albuquerque Center
Thu 08:45:07 PM 32.2436 -107.4297 272° West 360 414 31,900  Level Albuquerque Center
Thu 08:46:09 PM 32.2486 -107.5556 273° West 354 407 31,900  Level Albuquerque Center
Thu 08:47:11 PM 32.2494 -107.6739 271° West 358 412 31,900  Level Albuquerque Center
Thu 08:48:12 PM 32.2531 -107.7922 272° West 360 414 31,900  Level Albuquerque Center
Thu 08:49:14 PM 32.2539 -107.9103 271° West 359 413 31,900  Level Albuquerque Center
Thu 08:50:16 PM 32.2550 -108.0289 271° West 361 415 31,900  Level Albuquerque Center
Thu 08:51:18 PM 32.2567 -108.1478 271° West 363 418 31,900  Level Albuquerque Center
Thu 08:52:20 PM 32.2594 -108.2686 272° West 366 421 31,900  Level Albuquerque Center
Thu 08:53:22 PM 32.2619 -108.4139 271° West 368 423 31,900  Level Albuquerque Center
Thu 08:54:23 PM 32.2625 -108.5175 270° West 369 425 31,900  Level Albuquerque Center
Thu 08:55:25 PM 32.2644 -108.6650 271° West 375 432 31,900  Level Albuquerque Center
Thu 08:56:27 PM 32.2656 -108.7872 271° West 375 432 31,900  Level Albuquerque Center
Thu 08:57:29 PM 32.2675 -108.9097 271° West 374 430 31,900  Level Albuquerque Center
Thu 08:58:31 PM 32.2669 -109.0336 270° West 378 435 31,900  Level Albuquerque Center
Thu 08:59:32 PM 32.2689 -109.1578 271° West 379 436 31,900  Level Albuquerque Center
Thu 09:00:34 PM 32.2694 -109.2817 270° West 379 436 31,900  Level Albuquerque Center
Thu 09:01:36 PM 32.2903 -109.4275 280° West 378 435 31,900  Level Albuquerque Center
Thu 09:02:37 PM 32.3397 -109.5386 298° West 381 438 31,900 -341 Level Albuquerque Center
Thu 09:03:39 PM 32.3750 -109.6553 290° West 381 438 31,200 -677 Descending Albuquerque Center
Thu 09:04:41 PM 32.3986 -109.7775 283° West 382 440 30,500 -677 Descending Albuquerque Center
Thu 09:05:43 PM 32.4264 -109.9011 285° West 387 445 29,800 -829 Descending Albuquerque Center
Thu 09:06:44 PM 32.4553 -110.0211 286° West 385 443 28,800 -1,463 Descending Albuquerque Center
Thu 09:07:46 PM 32.4894 -110.1625 286° West 375 432 26,800 -1,935 Descending Albuquerque Center
Thu 09:08:48 PM 32.5150 -110.2728 285° West 355 409 24,800 -1,210 Descending Albuquerque Center
Thu 09:09:50 PM 32.5389 -110.3889 284° West 344 396 24,300 -1,073 Descending Albuquerque Center
Thu 09:10:51 PM 32.5750 -110.4931 292° West 340 391 22,600 -1,902 Descending Albuquerque Center
Thu 09:11:53 PM 32.6317 -110.5761 309° West 327 376 20,400 -2,032 Descending Albuquerque Center
Thu 09:12:55 PM 32.6736 -110.6747 297° West 333 383 18,400 -1,742 Descending Albuquerque Center
Thu 09:13:57 PM 32.7158 -110.7678 298° West 327 376 16,800 -1,403 Descending Albuquerque Center
Thu 09:14:59 PM 32.7583 -110.8581 299° West 317 365 15,500 -1,073 Descending Albuquerque Center
Thu 09:16:00 PM 32.7992 -110.9503 298° West 314 361 14,600 -976 Descending Albuquerque Center
Thu 09:17:02 PM 32.8511 -111.0644 298° West 324 373 13,500 -919 Descending Albuquerque Center
Thu 09:18:04 PM 32.8969 -111.1589 300° West 328 377 12,700 -683 Descending Albuquerque Center
Thu 09:19:05 PM 32.9364 -111.2444 299° West 297 342 12,100 -341 Descending Albuquerque Center
Thu 09:20:07 PM 32.9719 -111.3281 297° West 283 326 12,000 -242 Descending Albuquerque Center
Thu 09:21:09 PM 33.0072 -111.4122 297° West 284 327 11,600 -585 Descending Albuquerque Center
Thu 09:22:10 PM 33.0458 -111.4939 299° West 283 326 10,800 -732 Descending Albuquerque Center
Thu 09:23:12 PM 33.0739 -111.5853 290° West 291 335 10,100 -1,268 Descending Albuquerque Center
Thu 09:24:13 PM 33.1306 -111.6056 343° North 231 266 8,200 -1,024 Descending Albuquerque Center
Thu 09:25:15 PM 33.2061 -111.6128 355° North 225 259 8,000 -98 Descending Albuquerque Center
Thu 09:26:16 PM 33.2619 -111.6083 North 204 235 8,000 -146 Level Albuquerque Center
Thu 09:27:18 PM 33.3164 -111.6019 North 199 229 7,700 -823 Descending Albuquerque Center
Thu 09:28:20 PM 33.3614 -111.6500 318° Northwest 217 250 6,300 -1,317 Descending Albuquerque Center
Thu 09:29:21 PM 33.3825 -111.7114 292° West 201 231 5,000 -683 Descending Albuquerque Center
Thu 09:30:23 PM 33.4064 -111.7708 296° West 198 228 4,900 -634 Descending Albuquerque Center
Thu 09:31:24 PM 33.4269 -111.8331 292° West 201 231 3,700 -1,024 Descending Albuquerque Center
Thu 09:32:26 PM 33.4306 -111.8903 274° West 172 198 2,800 -829 Descending Albuquerque Center
Thu 09:33:27 PM 33.4311 -111.9453 271° West 140 161 2,000 -732 Descending Albuquerque Center
Thu 09:34:29 PM 33.4286 -111.9892 266° West 133 153 1,300 -677 Descending Albuquerque Center
Thu 09:36:00 PM 33.4333 -112.0000 320° Northwest  Level FlightAware Approximate

Login

Don't have an account? Register now (free) for customized features, flight alerts, and more!